Time;durP1;ratioP1;P1;durP2;ratioP2;P2;SDS_P1;SDS_P2;PMS_P1;PMS_P2;Temp;Humidity;BMP_temperature;BMP_pressure;BME280_temperature;BME280_humidity;BME280_pressure;Samples;Min_cycle;Max_cycle;Signal;HPM_P1;HPM_P2
2023/02/10 00:01:18;;;;;;;23.10;8.48;;;1.60;99.90;;;;;;5114806;28;20135;-78
2023/02/10 00:03:45;;;;;;;26.65;8.60;;;1.60;99.90;;;;;;5114783;28;20036;-78
2023/02/10 00:06:13;;;;;;;24.98;7.97;;;1.60;99.90;;;;;;5098350;28;20055;-78
2023/02/10 00:08:40;;;;;;;26.17;8.23;;;1.60;99.90;;;;;;5098040;28;20491;-78
2023/02/10 00:11:12;;;;;;;23.92;7.63;;;1.60;99.90;;;;;;5114087;28;20058;-78
2023/02/10 00:13:39;;;;;;;21.17;7.22;;;2.40;99.90;;;;;;5094330;28;20140;-78
2023/02/10 00:16:09;;;;;;;25.08;8.32;;;1.70;99.90;;;;;;5077990;28;20036;-78
2023/02/10 00:18:36;;;;;;;24.70;8.45;;;1.60;99.90;;;;;;5111378;28;20052;-78
2023/02/10 00:21:08;;;;;;;24.48;8.45;;;2.20;99.90;;;;;;5072070;28;20052;-79
2023/02/10 00:23:35;;;;;;;25.95;8.40;;;1.60;99.90;;;;;;5090726;28;20054;-78
2023/02/10 00:26:06;;;;;;;22.52;8.15;;;1.40;99.90;;;;;;5057227;28;20040;-79
2023/02/10 00:28:34;;;;;;;24.48;8.45;;;1.50;99.90;;;;;;5074849;28;20109;-78
2023/02/10 00:31:09;;;;;;;27.60;8.15;;;1.40;99.90;;;;;;5077211;28;20032;-78
2023/02/10 00:33:36;;;;;;;32.20;8.43;;;1.70;99.90;;;;;;5093883;28;20043;-78
2023/02/10 00:36:08;;;;;;;21.08;8.13;;;1.40;99.90;;;;;;5076874;28;20412;-79
2023/02/10 00:38:35;;;;;;;24.67;8.32;;;1.40;99.90;;;;;;5110672;28;20043;-78
2023/02/10 00:41:03;;;;;;;29.77;8.70;;;1.30;99.90;;;;;;5093965;28;20050;-78
2023/02/10 00:43:30;;;;;;;21.58;7.32;;;1.30;99.90;;;;;;5077269;28;20043;-78
2023/02/10 00:45:57;;;;;;;20.25;7.43;;;1.70;99.90;;;;;;5094192;28;20028;-78
2023/02/10 00:48:24;;;;;;;29.70;7.25;;;1.60;99.90;;;;;;5076514;28;20457;-78
2023/02/10 00:50:51;;;;;;;27.38;7.10;;;1.30;99.90;;;;;;5089122;28;20040;-78
2023/02/10 00:53:17;;;;;;;15.77;6.60;;;1.60;99.90;;;;;;5069607;28;20044;-78
2023/02/10 00:55:44;;;;;;;27.98;7.32;;;1.20;99.90;;;;;;5090555;28;20047;-79
2023/02/10 00:58:11;;;;;;;25.70;7.28;;;1.20;99.90;;;;;;5073315;28;20060;-79
2023/02/10 01:00:37;;;;;;;19.17;6.55;;;1.30;99.90;;;;;;5073407;28;20037;-79
2023/02/10 01:03:04;;;;;;;19.80;6.70;;;1.50;99.90;;;;;;5073290;28;20504;-78
2023/02/10 01:05:31;;;;;;;23.65;8.07;;;1.20;99.90;;;;;;5073268;28;20408;-78
2023/02/10 01:07:58;;;;;;;23.92;7.53;;;1.20;99.90;;;;;;5073679;28;20036;-78
2023/02/10 01:10:24;;;;;;;20.85;6.32;;;2.10;99.90;;;;;;5089907;28;20036;-78
2023/02/10 01:12:51;;;;;;;16.05;5.72;;;1.10;99.90;;;;;;5073006;28;20443;-78
2023/02/10 01:15:18;;;;;;;30.10;7.10;;;1.10;99.90;;;;;;5040629;28;20048;-78
2023/02/10 01:17:45;;;;;;;21.38;5.78;;;1.10;99.90;;;;;;5073285;28;20455;-78
2023/02/10 01:20:12;;;;;;;22.35;6.20;;;1.00;99.90;;;;;;5056800;28;20427;-79
2023/02/10 01:22:38;;;;;;;16.48;6.20;;;1.10;99.90;;;;;;5047076;28;20524;-78
2023/02/10 01:25:05;;;;;;;16.55;6.13;;;1.00;99.90;;;;;;5073181;28;20043;-78
2023/02/10 01:27:32;;;;;;;16.70;6.47;;;1.00;99.90;;;;;;5056123;28;20043;-78
2023/02/10 01:29:59;;;;;;;19.10;5.78;;;1.80;99.90;;;;;;5073125;28;20040;-78
2023/02/10 01:32:25;;;;;;;17.70;6.05;;;1.70;99.90;;;;;;5058645;28;20119;-79
2023/02/10 01:34:52;;;;;;;16.02;6.00;;;1.40;99.90;;;;;;5076114;28;20496;-78
2023/02/10 01:37:19;;;;;;;19.15;5.82;;;1.70;99.90;;;;;;5076312;28;20075;-78
2023/02/10 01:39:45;;;;;;;20.23;6.10;;;2.00;99.90;;;;;;5076325;28;20039;-78
2023/02/10 01:42:16;;;;;;;22.42;5.57;;;1.00;99.90;;;;;;5092457;28;20040;-79
2023/02/10 01:44:43;;;;;;;26.17;6.13;;;1.90;99.90;;;;;;5087311;28;20115;-78
2023/02/10 01:47:10;;;;;;;19.83;5.75;;;1.60;99.90;;;;;;5072899;28;20132;-78
2023/02/10 01:49:44;;;;;;;15.15;5.63;;;1.50;99.90;;;;;;5056269;28;20047;-78
2023/02/10 01:52:15;;;;;;;15.48;6.13;;;1.00;99.90;;;;;;5089221;28;20036;-78
2023/02/10 01:54:50;;;;;;;20.23;6.38;;;0.70;99.90;;;;;;5089479;28;20040;-78
2023/02/10 01:57:18;;;;;;;22.05;5.80;;;1.10;99.90;;;;;;5089118;28;20049;-79
2023/02/10 01:59:45;;;;;;;16.10;5.28;;;1.40;99.90;;;;;;5089320;28;20496;-78
2023/02/10 02:02:13;;;;;;;22.02;6.75;;;1.00;99.90;;;;;;5056109;28;20047;-78
2023/02/10 02:04:52;;;;;;;15.45;5.57;;;1.10;99.90;;;;;;5103349;28;20035;-78
2023/02/10 02:07:23;;;;;;;17.52;6.03;;;0.50;99.90;;;;;;5092412;28;20385;-78
2023/02/10 02:09:51;;;;;;;14.55;5.72;;;0.90;99.90;;;;;;5092443;28;20040;-78
2023/02/10 02:12:53;;;;;;;13.88;6.53;;;1.00;99.90;;;;;;5109573;28;20036;-79
2023/02/10 02:15:46;;;;;;;28.98;7.28;;;0.90;99.90;;;;;;5082604;28;20037;-79
2023/02/10 02:18:29;;;;;;;22.40;6.22;;;0.90;99.90;;;;;;5072420;28;20041;-78
2023/02/10 02:21:04;;;;;;;14.80;5.65;;;0.90;99.90;;;;;;5072227;28;20105;-78
2023/02/10 02:23:49;;;;;;;22.50;6.45;;;0.80;99.90;;;;;;5072151;28;20051;-78
2023/02/10 02:26:48;;;;;;;20.45;6.43;;;0.80;99.90;;;;;;5072329;28;20078;-78
2023/02/10 02:29:46;;;;;;;22.27;6.25;;;0.70;99.90;;;;;;5089038;28;20381;-78
2023/02/10 02:32:24;;;;;;;17.17;6.97;;;0.70;99.90;;;;;;5072619;28;20051;-78
2023/02/10 02:35:14;;;;;;;25.05;5.93;;;0.70;99.90;;;;;;5073174;28;20040;-78
2023/02/10 02:37:46;;;;;;;16.50;6.05;;;0.70;99.90;;;;;;5088621;28;20127;-78
2023/02/10 02:40:14;;;;;;;27.48;5.68;;;0.70;99.90;;;;;;5072168;28;20051;-78
2023/02/10 02:42:41;;;;;;;15.07;5.78;;;0.70;99.90;;;;;;5071746;28;20040;-78
2023/02/10 02:45:12;;;;;;;22.30;5.22;;;0.60;99.90;;;;;;5072232;28;20515;-78
2023/02/10 02:48:03;;;;;;;15.93;5.45;;;0.60;99.90;;;;;;5072022;28;20048;-78
2023/02/10 02:50:47;;;;;;;15.95;5.38;;;0.70;99.90;;;;;;5072461;28;20037;-78
2023/02/10 02:53:31;;;;;;;16.67;5.30;;;0.70;99.90;;;;;;5072517;28;20575;-78
2023/02/10 02:56:30;;;;;;;17.40;5.38;;;0.70;99.90;;;;;;5073548;28;20040;-78
2023/02/10 02:59:08;;;;;;;15.35;5.95;;;0.70;99.90;;;;;;5075751;28;20472;-78
2023/02/10 03:01:57;;;;;;;18.98;6.15;;;0.70;99.90;;;;;;5075338;28;20529;-78
2023/02/10 03:04:31;;;;;;;15.90;5.82;;;0.60;99.90;;;;;;5075688;28;20037;-79
2023/02/10 03:06:58;;;;;;;22.20;6.38;;;0.60;99.90;;;;;;5086628;28;20730;-78
2023/02/10 03:09:25;;;;;;;14.07;5.68;;;0.70;99.90;;;;;;5075515;28;20040;-79
2023/02/10 03:11:51;;;;;;;17.15;5.35;;;0.70;99.90;;;;;;5092143;28;20080;-78
2023/02/10 03:14:18;;;;;;;24.67;5.65;;;1.10;99.90;;;;;;5075756;28;20435;-78
2023/02/10 03:16:47;;;;;;;13.75;4.80;;;0.70;99.90;;;;;;5075364;28;20119;-78
2023/02/10 03:19:14;;;;;;;26.17;5.75;;;1.40;99.90;;;;;;5092318;28;20044;-78
2023/02/10 03:21:41;;;;;;;23.25;6.28;;;1.30;99.90;;;;;;5058660;28;20106;-78
2023/02/10 03:24:08;;;;;;;19.80;5.65;;;0.60;99.90;;;;;;5059012;28;20543;-78
2023/02/10 03:26:36;;;;;;;15.50;5.45;;;0.70;99.90;;;;;;5090782;28;20067;-78
2023/02/10 03:29:03;;;;;;;20.80;5.30;;;0.70;99.90;;;;;;5075677;28;20079;-78
2023/02/10 03:31:30;;;;;;;17.55;4.75;;;0.50;99.90;;;;;;5058857;28;20078;-78
2023/02/10 03:33:57;;;;;;;11.20;4.82;;;0.70;99.90;;;;;;5042781;28;20045;-78
2023/02/10 03:36:24;;;;;;;19.17;6.03;;;0.50;99.90;;;;;;5075295;28;20465;-78
2023/02/10 03:38:51;;;;;;;22.42;5.65;;;0.50;99.90;;;;;;5041747;28;20131;-78
2023/02/10 03:41:17;;;;;;;21.63;5.30;;;0.60;99.90;;;;;;5042279;28;20466;-78
2023/02/10 03:43:44;;;;;;;16.42;5.25;;;0.60;99.90;;;;;;5041893;28;20040;-78
2023/02/10 03:46:11;;;;;;;14.35;5.60;;;0.50;99.90;;;;;;5042653;28;20045;-78
2023/02/10 03:48:38;;;;;;;15.05;5.05;;;0.60;99.90;;;;;;5090620;28;20064;-78
2023/02/10 03:51:06;;;;;;;17.80;5.18;;;0.60;99.90;;;;;;5095073;28;20500;-78
2023/02/10 03:53:34;;;;;;;17.10;4.97;;;1.10;99.90;;;;;;5078308;28;20127;-79
2023/02/10 03:56:01;;;;;;;19.40;5.18;;;0.70;99.90;;;;;;5078469;28;20044;-78
2023/02/10 03:58:28;;;;;;;17.88;4.95;;;0.70;99.90;;;;;;5082493;28;20093;-78
2023/02/10 04:00:54;;;;;;;21.33;5.93;;;0.70;99.90;;;;;;5041894;28;20083;-78
2023/02/10 04:03:21;;;;;;;17.50;5.40;;;1.20;99.90;;;;;;5041664;28;20055;-78
2023/02/10 04:05:48;;;;;;;14.38;5.30;;;0.70;99.90;;;;;;5074395;28;20078;-78
2023/02/10 04:08:15;;;;;;;21.90;5.93;;;0.60;99.90;;;;;;5045163;28;20611;-78
2023/02/10 04:10:42;;;;;;;13.23;5.57;;;0.60;99.90;;;;;;5074072;28;20089;-78
2023/02/10 04:13:09;;;;;;;17.65;5.95;;;0.60;99.90;;;;;;5074425;28;20127;-78
2023/02/10 04:15:35;;;;;;;19.20;5.80;;;0.90;99.90;;;;;;5074131;28;20044;-79
2023/02/10 04:18:02;;;;;;;16.02;5.85;;;0.70;99.90;;;;;;5074162;28;20182;-78
2023/02/10 04:20:29;;;;;;;24.00;6.45;;;1.00;99.90;;;;;;5074110;28;20048;-78
2023/02/10 04:22:56;;;;;;;20.17;6.30;;;0.60;99.90;;;;;;5073647;28;20048;-78
2023/02/10 04:25:22;;;;;;;24.35;6.47;;;0.50;99.90;;;;;;5073984;28;20416;-78
2023/02/10 04:27:49;;;;;;;17.33;5.93;;;0.90;99.90;;;;;;5073843;28;20041;-78
2023/02/10 04:30:16;;;;;;;20.95;6.00;;;1.40;99.90;;;;;;5074063;28;20119;-78
2023/02/10 04:32:43;;;;;;;23.55;7.75;;;0.60;99.90;;;;;;5074149;28;20032;-78
2023/02/10 04:35:09;;;;;;;16.83;5.93;;;0.70;99.90;;;;;;5073889;28;20040;-78
2023/02/10 04:37:36;;;;;;;22.05;6.88;;;0.70;99.90;;;;;;5074081;28;20051;-78
2023/02/10 04:40:03;;;;;;;22.17;7.10;;;0.70;99.90;;;;;;5073482;28;20044;-78
2023/02/10 04:42:30;;;;;;;25.55;6.40;;;0.70;99.90;;;;;;5073793;28;20041;-78
2023/02/10 04:44:58;;;;;;;18.42;6.75;;;0.90;99.90;;;;;;5073658;28;20059;-78
2023/02/10 04:47:28;;;;;;;24.10;6.45;;;0.70;99.90;;;;;;5074020;28;20119;-78
2023/02/10 04:49:55;;;;;;;23.20;6.68;;;0.70;99.90;;;;;;5090241;28;20104;-78
2023/02/10 04:52:22;;;;;;;21.98;6.57;;;1.10;99.90;;;;;;5073975;28;20040;-78
2023/02/10 04:54:49;;;;;;;21.52;6.10;;;0.60;99.90;;;;;;5073651;28;20087;-78
2023/02/10 04:57:16;;;;;;;19.13;6.75;;;0.60;99.90;;;;;;5073583;28;20072;-78
2023/02/10 04:59:42;;;;;;;19.13;6.30;;;0.70;99.90;;;;;;5106845;28;20044;-78
2023/02/10 05:02:09;;;;;;;21.52;6.32;;;0.60;99.90;;;;;;5073400;28;20047;-78
2023/02/10 05:04:36;;;;;;;28.33;7.22;;;0.70;99.90;;;;;;5056890;28;20044;-78
2023/02/10 05:07:03;;;;;;;17.23;6.40;;;0.60;99.90;;;;;;5056748;28;20036;-78
2023/02/10 05:09:30;;;;;;;17.13;6.70;;;0.60;99.90;;;;;;5073544;28;20036;-78
2023/02/10 05:11:56;;;;;;;24.85;7.90;;;0.60;99.90;;;;;;5040491;28;20048;-78
2023/02/10 05:14:23;;;;;;;14.60;5.63;;;0.50;99.90;;;;;;5040750;28;20483;-78
2023/02/10 05:16:50;;;;;;;20.33;6.38;;;0.50;99.90;;;;;;5056474;28;20036;-78
2023/02/10 05:19:16;;;;;;;15.35;5.90;;;0.70;99.90;;;;;;5071940;28;20039;-78
2023/02/10 05:21:43;;;;;;;21.42;5.50;;;0.40;99.90;;;;;;5052880;28;20519;-79
2023/02/10 05:24:10;;;;;;;22.27;6.30;;;0.40;99.90;;;;;;5073014;28;20040;-78
2023/02/10 05:26:37;;;;;;;27.42;6.20;;;1.20;99.90;;;;;;5040232;28;20040;-78
2023/02/10 05:29:03;;;;;;;21.05;6.47;;;1.20;99.90;;;;;;5039873;28;20070;-78
2023/02/10 05:31:30;;;;;;;14.43;6.15;;;1.20;99.90;;;;;;5059598;28;20036;-78
2023/02/10 05:33:57;;;;;;;18.45;7.43;;;0.50;99.90;;;;;;5056690;28;20515;-78
2023/02/10 05:36:24;;;;;;;19.38;7.10;;;0.50;99.90;;;;;;5056611;28;20040;-78
2023/02/10 05:41:38;;;;;;;22.92;6.35;;;0.90;99.90;;;;;;5079164;28;20125;-78
2023/02/10 05:44:05;;;;;;;27.48;6.45;;;0.70;99.90;;;;;;5076085;28;20476;-78
2023/02/10 05:46:32;;;;;;;19.58;6.70;;;0.60;99.90;;;;;;5076051;28;20043;-78
2023/02/10 05:48:58;;;;;;;19.80;6.88;;;0.70;99.90;;;;;;5075819;28;20051;-79
2023/02/10 05:51:25;;;;;;;18.88;6.70;;;0.80;99.90;;;;;;5092968;28;20039;-78
2023/02/10 05:53:53;;;;;;;13.60;5.95;;;1.20;99.90;;;;;;5092585;28;20059;-79
2023/02/10 05:56:20;;;;;;;21.27;6.47;;;1.50;99.90;;;;;;5076272;28;20492;-78
2023/02/10 05:58:46;;;;;;;18.33;6.97;;;0.80;99.90;;;;;;5076446;28;20043;-78
2023/02/10 06:01:13;;;;;;;19.25;7.03;;;0.90;99.90;;;;;;5075861;28;20044;-78
2023/02/10 06:03:40;;;;;;;21.05;6.97;;;0.90;99.90;;;;;;5066237;28;20044;-78
2023/02/10 06:06:07;;;;;;;20.80;7.82;;;0.90;99.90;;;;;;5039796;28;20481;-78
2023/02/10 06:08:33;;;;;;;22.45;7.13;;;0.90;99.90;;;;;;5064031;28;20118;-79
2023/02/10 06:11:00;;;;;;;19.92;6.68;;;1.50;99.90;;;;;;5092572;28;20032;-79
2023/02/10 06:13:28;;;;;;;23.30;7.65;;;1.00;99.90;;;;;;5090383;28;20040;-78
2023/02/10 06:15:55;;;;;;;21.55;7.55;;;0.90;99.90;;;;;;5072657;28;20047;-78
2023/02/10 06:18:21;;;;;;;24.40;8.45;;;1.30;99.90;;;;;;5075856;28;20052;-78
2023/02/10 06:20:50;;;;;;;28.10;8.35;;;0.90;99.90;;;;;;5076370;28;20044;-78
2023/02/10 06:23:17;;;;;;;19.42;6.95;;;0.90;99.90;;;;;;5072606;28;20508;-78
2023/02/10 06:25:44;;;;;;;17.48;7.43;;;0.90;99.90;;;;;;5072290;28;20040;-78
2023/02/10 06:28:11;;;;;;;20.38;7.65;;;0.90;99.90;;;;;;5055602;28;20052;-78
2023/02/10 06:30:38;;;;;;;23.45;7.22;;;0.90;99.90;;;;;;5089666;28;20113;-78
2023/02/10 06:33:04;;;;;;;21.30;7.10;;;1.30;99.90;;;;;;5059543;28;20182;-78
2023/02/10 06:35:31;;;;;;;21.50;7.53;;;1.20;99.90;;;;;;5064850;28;20115;-78
2023/02/10 06:37:58;;;;;;;22.80;8.60;;;1.40;99.90;;;;;;5073345;28;20048;-78
2023/02/10 06:40:25;;;;;;;23.17;7.63;;;0.80;99.90;;;;;;5096161;28;20032;-78
2023/02/10 06:42:51;;;;;;;12.82;4.78;;;1.50;99.90;;;;;;5112959;28;20467;-78
2023/02/10 06:45:18;;;;;;;27.52;5.35;;;1.50;99.90;;;;;;5094593;28;20115;-78
2023/02/10 06:47:44;;;;;;;12.50;4.75;;;0.90;99.90;;;;;;5061803;28;20048;-78
2023/02/10 06:50:13;;;;;;;11.63;4.82;;;0.90;99.90;;;;;;5081647;28;20474;-78
2023/02/10 06:52:40;;;;;;;16.38;5.03;;;1.00;99.90;;;;;;5087829;28;20589;-78
2023/02/10 06:55:07;;;;;;;14.43;5.78;;;1.10;99.90;;;;;;5085445;28;20127;-78
2023/02/10 06:57:35;;;;;;;12.15;4.82;;;1.10;99.90;;;;;;5062596;28;20089;-78
2023/02/10 07:00:04;;;;;;;11.10;4.72;;;1.20;99.90;;;;;;5075456;28;20158;-78
2023/02/10 07:02:31;;;;;;;14.52;5.15;;;1.20;99.90;;;;;;5076049;28;20045;-78
2023/02/10 07:04:57;;;;;;;14.45;5.10;;;1.60;99.90;;;;;;5062421;28;20059;-79
2023/02/10 07:07:24;;;;;;;12.38;4.70;;;1.20;99.90;;;;;;5075588;28;20039;-78
2023/02/10 07:09:53;;;;;;;10.95;5.00;;;1.80;99.90;;;;;;5042629;28;20051;-78
2023/02/10 07:12:20;;;;;;;18.67;5.22;;;1.20;99.90;;;;;;5049220;28;20413;-79
2023/02/10 07:14:47;;;;;;;11.95;5.15;;;1.30;99.90;;;;;;5064256;28;20044;-78
2023/02/10 07:17:13;;;;;;;13.18;4.95;;;1.60;99.90;;;;;;5059594;28;20135;-78
2023/02/10 07:19:40;;;;;;;12.13;4.82;;;1.40;99.90;;;;;;5042789;28;20043;-78
2023/02/10 07:22:07;;;;;;;15.38;4.65;;;1.40;99.90;;;;;;5042883;28;20041;-80
2023/02/10 07:24:34;;;;;;;14.48;5.57;;;1.40;99.90;;;;;;5059046;28;20059;-79
2023/02/10 07:27:02;;;;;;;17.02;4.97;;;2.00;99.90;;;;;;5070014;28;20033;-79
2023/02/10 07:29:29;;;;;;;14.93;4.63;;;2.10;99.90;;;;;;5091104;28;20405;-79
2023/02/10 07:31:57;;;;;;;13.18;4.95;;;1.50;99.90;;;;;;5061548;28;20032;-79
2023/02/10 07:34:25;;;;;;;14.00;4.85;;;1.70;99.90;;;;;;5083147;28;20040;-79
2023/02/10 07:36:53;;;;;;;14.00;5.47;;;1.90;99.90;;;;;;5099501;28;20489;-79
2023/02/10 07:39:24;;;;;;;13.90;5.20;;;1.60;99.90;;;;;;5069886;28;20066;-79
2023/02/10 07:41:51;;;;;;;12.70;4.70;;;2.10;99.90;;;;;;5090198;28;20496;-79
2023/02/10 07:44:20;;;;;;;13.90;4.80;;;2.20;99.90;;;;;;5083797;28;20043;-79
2023/02/10 07:46:47;;;;;;;10.60;4.88;;;1.80;99.90;;;;;;5088620;28;20076;-79
2023/02/10 07:49:14;;;;;;;15.02;5.53;;;1.80;99.90;;;;;;5059754;28;20056;-80
2023/02/10 07:51:42;;;;;;;18.63;5.25;;;2.20;99.90;;;;;;5094605;28;20232;-79
2023/02/10 07:54:09;;;;;;;12.80;4.75;;;1.80;99.90;;;;;;5078395;28;20040;-80
2023/02/10 07:56:37;;;;;;;20.48;5.20;;;1.90;99.90;;;;;;5077267;28;20048;-80
2023/02/10 07:59:04;;;;;;;16.42;5.20;;;2.10;99.90;;;;;;5111134;28;20182;-80
2023/02/10 08:01:31;;;;;;;11.80;4.95;;;2.00;99.90;;;;;;5079149;28;20583;-80
2023/02/10 08:03:58;;;;;;;14.10;5.72;;;2.40;99.90;;;;;;5074648;28;20044;-79
2023/02/10 08:06:26;;;;;;;12.95;4.85;;;1.30;99.90;;;;;;5086755;28;20048;-79
2023/02/10 08:08:52;;;;;;;16.85;5.20;;;2.00;99.90;;;;;;5100991;28;20040;-80
2023/02/10 08:11:19;;;;;;;10.90;4.60;;;2.10;99.90;;;;;;5057736;28;20082;-79
2023/02/10 08:13:46;;;;;;;16.90;5.28;;;2.40;99.90;;;;;;5042018;28;20391;-80
2023/02/10 08:16:12;;;;;;;11.10;4.80;;;2.10;99.90;;;;;;5064165;28;20037;-80
2023/02/10 08:18:40;;;;;;;17.33;5.13;;;2.10;99.90;;;;;;5068183;28;20040;-79
2023/02/10 08:21:07;;;;;;;22.40;5.57;;;2.10;99.90;;;;;;5074379;28;20040;-79
2023/02/10 08:23:34;;;;;;;15.20;5.15;;;2.50;99.90;;;;;;5090286;28;20050;-79
2023/02/10 08:26:12;;;;;;;17.83;5.32;;;2.20;99.90;;;;;;5083454;28;20120;-79
2023/02/10 08:28:40;;;;;;;14.23;5.43;;;2.20;99.90;;;;;;5096737;28;20040;-79
2023/02/10 08:31:08;;;;;;;18.42;5.88;;;2.40;99.90;;;;;;5074093;28;20044;-79
2023/02/10 08:33:36;;;;;;;15.25;5.28;;;2.30;99.90;;;;;;5092146;28;20051;-79
2023/02/10 08:36:11;;;;;;;15.23;6.43;;;2.70;99.90;;;;;;5081932;28;20062;-79
2023/02/10 08:38:38;;;;;;;17.92;8.70;;;2.40;99.90;;;;;;5087933;28;20040;-79
2023/02/10 08:41:05;;;;;;;11.88;5.45;;;2.70;99.90;;;;;;5077464;28;20097;-79
2023/02/10 08:43:42;;;;;;;19.08;8.63;;;2.50;99.90;;;;;;5093747;28;20499;-81
2023/02/10 08:46:09;;;;;;;13.65;6.97;;;3.20;99.90;;;;;;5076711;28;20506;-79
2023/02/10 08:48:36;;;;;;;18.38;7.75;;;2.60;99.90;;;;;;5090690;28;20052;-80
2023/02/10 08:51:08;;;;;;;24.50;7.55;;;2.60;99.90;;;;;;5074998;28;20516;-79
2023/02/10 08:53:35;;;;;;;17.80;6.78;;;2.80;99.90;;;;;;5066172;28;20123;-80
2023/02/10 08:56:10;;;;;;;14.35;6.45;;;3.00;99.90;;;;;;5067365;28;20132;-80
2023/02/10 08:58:37;;;;;;;11.60;5.97;;;2.60;99.90;;;;;;5093721;28;20040;-80
2023/02/10 09:01:13;;;;;;;14.68;5.68;;;2.60;99.90;;;;;;5073417;28;20562;-80
2023/02/10 09:03:40;;;;;;;12.48;5.85;;;2.20;99.90;;;;;;5092420;28;20111;-80
2023/02/10 09:06:22;;;;;;;12.45;5.93;;;2.70;99.90;;;;;;5073128;28;20082;-79
2023/02/10 09:08:52;;;;;;;14.20;5.72;;;2.70;99.90;;;;;;5091227;28;20040;-78
2023/02/10 09:11:23;;;;;;;19.10;6.43;;;2.70;99.90;;;;;;5082704;28;20093;-78
2023/02/10 09:13:53;;;;;;;14.60;5.93;;;2.80;99.90;;;;;;5092879;28;20408;-78
2023/02/10 09:16:20;;;;;;;17.95;7.15;;;2.80;99.90;;;;;;5075857;28;20067;-78
2023/02/10 09:18:46;;;;;;;18.63;6.30;;;2.80;99.90;;;;;;5092970;28;20031;-78
2023/02/10 09:21:13;;;;;;;16.67;6.88;;;2.80;99.90;;;;;;5076699;28;20059;-78
2023/02/10 09:23:40;;;;;;;18.00;6.18;;;2.80;99.90;;;;;;5056403;28;20036;-78
2023/02/10 09:26:06;;;;;;;11.30;5.80;;;2.70;99.90;;;;;;5056244;28;20033;-77
2023/02/10 09:28:34;;;;;;;10.90;5.68;;;2.70;99.90;;;;;;5055891;28;20049;-78
2023/02/10 09:31:01;;;;;;;18.88;5.97;;;2.80;99.90;;;;;;5063712;28;20512;-78
2023/02/10 09:33:27;;;;;;;9.73;5.32;;;3.20;99.90;;;;;;5086441;28;20044;-78
2023/02/10 09:35:54;;;;;;;12.77;6.25;;;2.80;99.90;;;;;;5076194;28;20032;-78
2023/02/10 09:38:21;;;;;;;18.08;6.40;;;2.90;99.90;;;;;;5075936;28;20048;-78
2023/02/10 09:41:02;;;;;;;19.23;6.13;;;2.90;99.90;;;;;;5073240;28;20041;-78
2023/02/10 09:43:47;;;;;;;21.73;7.35;;;3.00;99.90;;;;;;5072059;28;20128;-78
2023/02/10 09:46:33;;;;;;;15.68;6.13;;;3.10;99.90;;;;;;5072498;28;20036;-79
2023/02/10 09:49:18;;;;;;;29.60;6.53;;;3.20;99.90;;;;;;5072360;28;20136;-78
2023/02/10 09:51:56;;;;;;;13.68;6.13;;;3.30;99.90;;;;;;5080877;28;20282;-78
2023/02/10 09:54:24;;;;;;;17.65;6.95;;;3.30;99.90;;;;;;5109176;28;20408;-78
2023/02/10 09:56:50;;;;;;;17.17;7.20;;;3.50;99.90;;;;;;5075877;28;20036;-78
2023/02/10 09:59:25;;;;;;;13.70;6.00;;;3.50;99.90;;;;;;5075295;28;20488;-79
2023/02/10 10:01:58;;;;;;;22.40;6.57;;;3.70;99.90;;;;;;5103449;28;20044;-78
2023/02/10 10:04:28;;;;;;;18.52;6.88;;;3.70;99.90;;;;;;5105951;28;20041;-78
2023/02/10 10:07:31;;;;;;;24.52;7.43;;;3.80;99.90;;;;;;5098766;28;20043;-78
2023/02/10 10:10:33;;;;;;;17.90;7.03;;;3.90;99.90;;;;;;5086722;28;20044;-78
2023/02/10 10:12:59;;;;;;;19.00;6.97;;;4.10;99.90;;;;;;5078414;28;20499;-78
2023/02/10 10:15:36;;;;;;;18.85;6.40;;;4.40;99.90;;;;;;5091570;28;20101;-78
2023/02/10 10:18:03;;;;;;;17.08;6.82;;;4.30;99.90;;;;;;5108639;28;20408;-78
2023/02/10 10:20:45;;;;;;;15.40;6.43;;;4.40;99.90;;;;;;5091974;28;20052;-78
2023/02/10 10:23:18;;;;;;;16.42;6.70;;;4.40;99.90;;;;;;5079508;28;20036;-78
2023/02/10 10:25:51;;;;;;;15.15;6.40;;;4.50;99.90;;;;;;5088633;28;20400;-78
2023/02/10 10:28:36;;;;;;;14.80;6.47;;;4.50;99.90;;;;;;5071696;28;20412;-79
2023/02/10 10:31:08;;;;;;;19.60;6.63;;;4.60;99.90;;;;;;5072325;28;20045;-78
2023/02/10 10:33:42;;;;;;;16.30;6.70;;;4.60;99.90;;;;;;5090292;28;20127;-78
2023/02/10 10:36:22;;;;;;;16.65;5.88;;;4.70;99.90;;;;;;5071826;28;20041;-78
2023/02/10 10:38:54;;;;;;;22.40;6.88;;;4.80;99.90;;;;;;5074755;28;20040;-78
2023/02/10 10:41:26;;;;;;;14.95;6.15;;;4.90;99.90;;;;;;5087940;28;20036;-78
2023/02/10 10:43:56;;;;;;;13.98;6.00;;;4.90;99.90;;;;;;5088142;28;20049;-78
2023/02/10 10:47:00;;;;;;;13.02;5.57;;;4.90;99.90;;;;;;5104087;28;20040;-78
2023/02/10 10:49:27;;;;;;;22.10;6.50;;;5.00;99.90;;;;;;5091075;28;20067;-78
2023/02/10 10:51:54;;;;;;;17.33;7.00;;;5.10;99.90;;;;;;5091612;28;20044;-78
2023/02/10 10:54:22;;;;;;;14.60;5.78;;;5.20;99.90;;;;;;5091479;28;20040;-79
2023/02/10 10:57:01;;;;;;;14.50;5.93;;;5.20;99.90;;;;;;5091347;28;20560;-78
2023/02/10 10:59:45;;;;;;;14.88;5.95;;;5.30;99.90;;;;;;5108533;28;20122;-78
2023/02/10 11:02:21;;;;;;;15.98;5.95;;;5.30;99.90;;;;;;5108487;28;20489;-78
2023/02/10 11:05:01;;;;;;;16.45;5.78;;;5.30;99.90;;;;;;5091460;28;20040;-78
2023/02/10 11:07:30;;;;;;;14.88;5.97;;;5.40;99.90;;;;;;5096712;28;20044;-78
2023/02/10 11:09:58;;;;;;;17.75;6.05;;;5.40;99.90;;;;;;5062860;28;20067;-78
2023/02/10 11:12:39;;;;;;;14.07;6.65;;;5.50;99.90;;;;;;5072493;28;20645;-79
2023/02/10 11:15:35;;;;;;;19.20;5.88;;;5.50;99.90;;;;;;5072843;28;20044;-77
2023/02/10 11:18:04;;;;;;;17.65;6.60;;;5.60;99.90;;;;;;5083253;28;20413;-77
2023/02/10 11:20:36;;;;;;;24.88;7.20;;;5.70;99.90;;;;;;5103370;28;20032;-78
2023/02/10 11:23:12;;;;;;;17.73;5.32;;;5.70;99.90;;;;;;5103550;28;20032;-78
2023/02/10 11:25:40;;;;;;;15.50;5.60;;;5.70;99.90;;;;;;5099522;28;20119;-78
2023/02/10 11:28:17;;;;;;;16.13;5.63;;;5.80;99.90;;;;;;5100168;28;20037;-77
2023/02/10 11:30:53;;;;;;;22.33;6.03;;;5.80;99.90;;;;;;5085277;28;20039;-78
2023/02/10 11:33:21;;;;;;;;;;;5.80;99.90;;;;;;5087128;28;20097;-78
2023/02/10 11:35:52;;;;;;;20.13;5.65;;;5.90;99.90;;;;;;5094524;28;19916;-78
2023/02/10 11:38:23;;;;;;;20.67;5.72;;;5.90;99.90;;;;;;5081329;28;20573;-78
2023/02/10 11:40:53;;;;;;;19.02;5.82;;;5.90;99.90;;;;;;5086568;28;20035;-78
2023/02/10 11:43:27;;;;;;;13.88;5.70;;;5.90;99.90;;;;;;5094431;28;20107;-78
2023/02/10 11:45:57;;;;;;;22.17;6.35;;;6.00;99.90;;;;;;5094909;28;20396;-78
2023/02/10 11:48:26;;;;;;;27.77;7.10;;;6.10;99.90;;;;;;5093389;28;20464;-78
2023/02/10 11:51:15;;;;;;;13.43;6.53;;;6.20;99.90;;;;;;5111226;28;20048;-78
2023/02/10 11:53:44;;;;;;;23.33;7.68;;;6.10;99.90;;;;;;5094717;28;20040;-78
2023/02/10 11:59:30;;;;;;;14.75;5.68;;;6.20;99.90;;;;;;5104675;28;20048;-78
2023/02/10 12:02:26;;;;;;;21.17;6.78;;;6.10;99.90;;;;;;5094281;28;20519;-78
2023/02/10 12:05:03;;;;;;;19.70;5.68;;;6.20;99.90;;;;;;5094039;28;20047;-78
2023/02/10 12:07:51;;;;;;;19.20;6.05;;;6.20;99.90;;;;;;5110460;28;20500;-78
2023/02/10 12:10:29;;;;;;;18.52;5.88;;;6.40;99.90;;;;;;5093080;28;20035;-77
2023/02/10 12:13:26;;;;;;;17.02;5.75;;;6.50;99.90;;;;;;5079672;28;20040;-78
2023/02/10 12:16:14;;;;;;;19.77;6.38;;;6.50;99.90;;;;;;5083515;28;20401;-78
2023/02/10 12:18:46;;;;;;;17.40;6.75;;;6.70;99.90;;;;;;5095798;28;20412;-77
2023/02/10 12:21:16;;;;;;;16.88;6.45;;;6.70;99.90;;;;;;5091762;28;20055;-78
2023/02/10 12:23:45;;;;;;;18.98;6.00;;;6.70;99.90;;;;;;5087831;28;20055;-77
2023/02/10 12:26:22;;;;;;;17.25;5.80;;;6.60;99.90;;;;;;5093685;28;20056;-77
2023/02/10 12:28:56;;;;;;;15.25;5.90;;;6.70;99.90;;;;;;5080184;28;20066;-77
2023/02/10 12:31:51;;;;;;;15.53;6.10;;;6.70;99.90;;;;;;5074457;28;20039;-78
2023/02/10 12:34:42;;;;;;;17.17;4.88;;;6.80;99.90;;;;;;5073711;28;20110;-78
2023/02/10 12:37:46;;;;;;;11.07;4.32;;;6.80;99.90;;;;;;5073833;28;20056;-77
2023/02/10 12:40:23;;;;;;;13.10;3.83;;;6.90;99.90;;;;;;5028550;28;20048;-78
2023/02/10 12:43:08;;;;;;;12.68;4.80;;;7.00;99.90;;;;;;5073001;28;20591;-78
2023/02/10 12:45:48;;;;;;;11.07;3.83;;;7.20;99.90;;;;;;5073443;28;20047;-78
2023/02/10 12:48:27;;;;;;;13.85;5.05;;;7.30;99.90;;;;;;5073158;28;20044;-78
2023/02/10 12:51:31;;;;;;;10.50;4.32;;;7.30;99.90;;;;;;5086941;28;20046;-78
2023/02/10 12:54:03;;;;;;;13.13;3.65;;;7.30;99.90;;;;;;5093293;28;20419;-78
2023/02/10 12:56:42;;;;;;;15.05;4.25;;;7.30;99.90;;;;;;5085641;28;20401;-78
2023/02/10 12:59:16;;;;;;;10.15;3.30;;;7.30;99.90;;;;;;5087806;28;20040;-78
2023/02/10 13:01:50;;;;;;;10.55;3.95;;;7.20;99.90;;;;;;5106711;28;20505;-78
2023/02/10 13:04:30;;;;;;;10.07;3.30;;;7.20;99.90;;;;;;5083567;28;20043;-78
2023/02/10 13:07:27;;;;;;;7.55;3.25;;;7.10;99.90;;;;;;5093026;28;20037;-78
2023/02/10 13:10:03;;;;;;;13.73;4.28;;;7.00;99.90;;;;;;5068456;28;20404;-78
2023/02/10 13:12:36;;;;;;;18.20;3.97;;;7.00;99.90;;;;;;5086509;28;20043;-78
2023/02/10 13:15:15;;;;;;;12.55;3.78;;;7.00;99.90;;;;;;5076527;28;20459;-78